Alcorn State University, Mississippi
Current Conditions -  °F | °C
As of 10:35 AM on Wednesday 22 Oct 2014 (Local Time) from KHEZ Reporting Station
Clear Clear  
Wind Chill: 68°   Ceiling: Unl
Heat Index: 68°   Visibility: 10mi
Dew Point: 54°   Wind: 12mph
Humidity: 60%   Direction: 70°ENE
Pressure: 30.16"   Gusts: 16mph
Location:  31.8192°N, 91.1912°W
Report Text: KHEZ 221535Z AUTO 07010G14KT 10SM CLR 20/12 A3016 RMK AO1
Loading
Personal Weather Stations






























Interactive Weather Map
Tropical Storm Tracking
New forecast layout! Learn more

10-Day Weather Forecast

Advertisements
Track Severe Weather on mobile